createdAt,value
2016-03-25T00:00:05.572Z,0
2016-03-25T00:01:05.559Z,0
2016-03-25T00:02:05.562Z,0
2016-03-25T00:03:05.565Z,0
2016-03-25T00:04:05.567Z,0
2016-03-25T00:05:05.538Z,0
2016-03-25T00:06:05.541Z,0
2016-03-25T00:07:05.568Z,0
2016-03-25T00:08:05.398Z,0
2016-03-25T00:09:05.540Z,0
2016-03-25T00:10:05.528Z,0
2016-03-25T00:11:05.546Z,0
2016-03-25T00:12:05.549Z,0
2016-03-25T00:13:05.536Z,0
2016-03-25T00:14:05.523Z,0
2016-03-25T00:15:05.573Z,0
2016-03-25T00:16:05.513Z,0
2016-03-25T00:17:05.516Z,0
2016-03-25T00:18:05.503Z,0
2016-03-25T00:19:05.724Z,0
2016-03-25T00:20:05.524Z,0
2016-03-25T00:21:05.495Z,0
2016-03-25T00:22:05.513Z,0
2016-03-25T00:23:05.594Z,0
2016-03-25T00:24:05.503Z,0
2016-03-25T00:25:05.505Z,0
2016-03-25T00:26:05.508Z,0
2016-03-25T00:27:05.496Z,0
2016-03-25T00:28:05.498Z,0
2016-03-25T00:29:05.517Z,0
2016-03-25T00:30:05.488Z,0
2016-03-25T00:31:05.474Z,0
2016-03-25T00:32:05.493Z,0
2016-03-25T00:33:05.496Z,0
2016-03-25T00:34:05.483Z,0
2016-03-25T00:35:05.502Z,0
2016-03-25T00:36:05.488Z,0
2016-03-25T00:37:05.476Z,0
2016-03-25T00:38:05.478Z,0
2016-03-25T00:39:05.481Z,0
2016-03-25T00:40:05.468Z,0
2016-03-25T00:41:05.501Z,0
2016-03-25T00:42:05.458Z,0
2016-03-25T00:43:05.461Z,0
2016-03-25T00:44:05.478Z,0
2016-03-25T00:45:05.467Z,0
2016-03-25T00:46:05.453Z,0
2016-03-25T00:47:05.471Z,0
2016-03-25T00:48:05.443Z,0
2016-03-25T00:49:05.555Z,0
2016-03-25T00:50:05.463Z,0
2016-03-25T00:51:05.451Z,0
2016-03-25T00:52:05.438Z,0
2016-03-25T00:53:05.441Z,0
2016-03-25T00:54:05.444Z,0
2016-03-25T00:55:05.446Z,0
2016-03-25T00:56:05.433Z,0
2016-03-25T00:57:05.451Z,0
2016-03-25T00:58:05.454Z,0
2016-03-25T00:59:05.456Z,0
2016-03-25T01:00:05.272Z,0
2016-03-25T01:01:05.430Z,0
2016-03-25T01:02:05.433Z,0
2016-03-25T01:03:05.421Z,0
2016-03-25T01:04:04.689Z,0
2016-03-25T01:05:05.426Z,0
2016-03-25T01:06:05.413Z,0
2016-03-25T01:07:04.666Z,0
2016-03-25T01:08:05.403Z,0
2016-03-25T01:09:05.437Z,0
2016-03-25T01:10:05.409Z,0
2016-03-25T01:11:05.395Z,0
2016-03-25T01:12:05.632Z,0
2016-03-25T01:13:05.416Z,0
2016-03-25T01:14:05.403Z,0
2016-03-25T01:15:05.437Z,0
2016-03-25T01:16:05.393Z,0
2016-03-25T01:17:05.412Z,0
2016-03-25T01:18:05.398Z,0
2016-03-25T01:19:05.401Z,0
2016-03-25T01:20:05.404Z,0
2016-03-25T01:21:05.391Z,0
2016-03-25T01:22:05.394Z,0
2016-03-25T01:23:05.396Z,0
2016-03-25T01:24:05.383Z,0
2016-03-25T01:25:05.402Z,0
2016-03-25T01:26:05.389Z,0
2016-03-25T01:27:05.391Z,0
2016-03-25T01:28:05.394Z,0
2016-03-25T01:29:05.396Z,0
2016-03-25T01:30:05.384Z,0
2016-03-25T01:31:05.371Z,0
2016-03-25T01:32:05.389Z,0
2016-03-25T01:33:05.376Z,0
2016-03-25T01:34:05.379Z,0
2016-03-25T01:35:05.382Z,0
2016-03-25T01:36:05.385Z,0
2016-03-25T01:37:05.215Z,0
2016-03-25T01:38:05.421Z,0
2016-03-25T01:39:05.361Z,0
2016-03-25T01:40:05.379Z,0
2016-03-25T01:41:05.351Z,0
2016-03-25T01:42:05.416Z,0
2016-03-25T01:43:05.356Z,0
2016-03-25T01:44:05.203Z,0
2016-03-25T01:45:05.378Z,0
2016-03-25T01:46:05.364Z,0
2016-03-25T01:47:04.648Z,0
2016-03-25T01:48:05.370Z,0
2016-03-25T01:49:05.403Z,0
2016-03-25T01:50:05.375Z,0
2016-03-25T01:51:05.362Z,0
2016-03-25T01:52:05.349Z,0
2016-03-25T01:53:05.383Z,0
2016-03-25T01:54:05.370Z,0
2016-03-25T01:55:05.341Z,0
2016-03-25T01:56:05.422Z,0
2016-03-25T01:57:06.097Z,0
2016-03-25T01:58:05.350Z,0
2016-03-25T01:59:05.336Z,0
2016-03-25T02:00:05.339Z,0
2016-03-25T02:01:05.327Z,0
2016-03-25T02:02:05.470Z,0
2016-03-25T02:03:05.332Z,0
2016-03-25T02:04:05.349Z,0
2016-03-25T02:05:05.321Z,0
2016-03-25T02:06:05.340Z,0
2016-03-25T02:07:05.327Z,0
2016-03-25T02:08:05.314Z,0
2016-03-25T02:09:05.363Z,0
2016-03-25T02:10:05.320Z,0
2016-03-25T02:11:05.322Z,0
2016-03-25T02:12:05.325Z,0
2016-03-25T02:13:05.312Z,0
2016-03-25T02:14:05.330Z,0
2016-03-25T02:15:05.318Z,0
2016-03-25T02:16:05.336Z,0
2016-03-25T02:17:05.291Z,0
2016-03-25T02:18:05.310Z,0
2016-03-25T02:19:05.312Z,0
2016-03-25T02:20:05.314Z,0
2016-03-25T02:21:05.303Z,0
2016-03-25T02:22:05.305Z,0
2016-03-25T02:23:05.339Z,0
2016-03-25T02:24:05.310Z,0
2016-03-25T02:25:05.297Z,0
2016-03-25T02:26:05.316Z,0
2016-03-25T02:27:05.302Z,0
2016-03-25T02:28:05.305Z,0
2016-03-25T02:29:05.291Z,0
2016-03-25T02:30:05.294Z,0
2016-03-25T02:31:05.298Z,0
2016-03-25T02:32:05.300Z,0
2016-03-25T02:33:05.287Z,0
2016-03-25T02:34:05.291Z,0
2016-03-25T02:35:05.293Z,0
2016-03-25T02:36:05.295Z,0
2016-03-25T02:37:05.267Z,0
2016-03-25T02:38:05.301Z,0
2016-03-25T02:39:05.273Z,0
2016-03-25T02:40:05.276Z,0
2016-03-25T02:41:05.278Z,0
2016-03-25T02:42:05.265Z,0
2016-03-25T02:43:05.268Z,0
2016-03-25T02:44:05.270Z,0
2016-03-25T02:45:05.272Z,0
2016-03-25T02:46:05.259Z,0
2016-03-25T02:47:05.254Z,0
2016-03-25T02:48:05.242Z,0
2016-03-25T02:49:05.215Z,0
2016-03-25T02:50:05.202Z,0
2016-03-25T02:51:05.221Z,0
2016-03-25T02:52:05.183Z,0
2016-03-25T02:53:05.305Z,0
2016-03-25T02:54:05.178Z,0
2016-03-25T02:55:05.143Z,0
2016-03-25T02:56:05.157Z,0
2016-03-25T02:57:05.139Z,0
2016-03-25T02:58:05.140Z,0
2016-03-25T02:59:05.141Z,0
2016-03-25T03:00:05.142Z,0
2016-03-25T03:01:05.127Z,0
2016-03-25T03:02:05.144Z,0
2016-03-25T03:03:05.115Z,0
2016-03-25T03:04:04.961Z,0
2016-03-25T03:05:04.994Z,0
2016-03-25T03:06:05.120Z,0
2016-03-25T03:07:05.138Z,0
2016-03-25T03:08:04.985Z,0
2016-03-25T03:09:05.112Z,0
2016-03-25T03:10:05.114Z,0
2016-03-25T03:11:05.148Z,0
2016-03-25T03:12:05.103Z,0
2016-03-25T03:13:05.122Z,0
2016-03-25T03:14:05.109Z,0
2016-03-25T03:15:04.955Z,0
2016-03-25T03:16:05.098Z,0
2016-03-25T03:17:05.101Z,0
2016-03-25T03:18:05.103Z,0
2016-03-25T03:19:05.091Z,0
2016-03-25T03:20:05.094Z,0
2016-03-25T03:21:05.112Z,0
2016-03-25T03:22:05.114Z,0
2016-03-25T03:23:04.977Z,0
2016-03-25T03:24:05.089Z,0
2016-03-25T03:25:05.075Z,0
2016-03-25T03:26:05.094Z,0
2016-03-25T03:27:05.113Z,0
2016-03-25T03:28:05.083Z,0
2016-03-25T03:29:05.072Z,0
2016-03-25T03:30:05.090Z,0
2016-03-25T03:31:05.092Z,0
2016-03-25T03:32:05.080Z,0
2016-03-25T03:33:05.067Z,0
2016-03-25T03:34:05.085Z,0
2016-03-25T03:35:05.103Z,0
2016-03-25T03:36:05.075Z,0
2016-03-25T03:37:05.077Z,0
2016-03-25T03:38:05.081Z,0
2016-03-25T03:39:05.068Z,0
2016-03-25T03:40:05.070Z,0
2016-03-25T03:41:05.074Z,0
2016-03-25T03:42:05.060Z,0
2016-03-25T03:43:05.062Z,0
2016-03-25T03:44:05.066Z,0
2016-03-25T03:45:05.068Z,0
2016-03-25T03:46:05.055Z,0
2016-03-25T03:47:05.058Z,0
2016-03-25T03:48:05.060Z,0
2016-03-25T03:49:05.048Z,0
2016-03-25T03:50:04.315Z,0
2016-03-25T03:51:05.068Z,0
2016-03-25T03:52:05.040Z,0
2016-03-25T03:53:05.073Z,0
2016-03-25T03:54:05.046Z,0
2016-03-25T03:55:05.048Z,0
2016-03-25T03:56:05.066Z,0
2016-03-25T03:57:05.070Z,0
2016-03-25T03:58:05.056Z,0
2016-03-25T03:59:05.028Z,0
2016-03-25T04:00:05.045Z,0
2016-03-25T04:01:05.033Z,0
2016-03-25T04:02:05.036Z,0
2016-03-25T04:03:05.038Z,0
2016-03-25T04:04:05.041Z,0
2016-03-25T04:05:05.028Z,0
2016-03-25T04:06:05.031Z,0
2016-03-25T04:07:05.033Z,0
2016-03-25T04:08:05.035Z,0
2016-03-25T04:09:05.024Z,0
2016-03-25T04:10:05.010Z,0
2016-03-25T04:11:05.029Z,0
2016-03-25T04:12:05.032Z,0
2016-03-25T04:13:04.877Z,0
2016-03-25T04:14:05.021Z,0
2016-03-25T04:15:05.024Z,0
2016-03-25T04:16:05.026Z,0
2016-03-25T04:17:05.029Z,0
2016-03-25T04:18:05.016Z,0
2016-03-25T04:19:05.004Z,0
2016-03-25T04:20:05.021Z,0
2016-03-25T04:21:05.071Z,0
2016-03-25T04:22:05.011Z,0
2016-03-25T04:23:05.030Z,0
2016-03-25T04:24:05.017Z,0
2016-03-25T04:25:05.003Z,0
2016-03-25T04:26:05.022Z,0
2016-03-25T04:27:04.697Z,0
2016-03-25T04:28:05.012Z,0
2016-03-25T04:29:04.998Z,4
2016-03-25T04:30:05.017Z,4
2016-03-25T04:31:04.989Z,0
2016-03-25T04:32:05.038Z,4
2016-03-25T04:33:04.994Z,4
2016-03-25T04:34:05.012Z,4
2016-03-25T04:35:04.983Z,8
2016-03-25T04:36:05.003Z,8
2016-03-25T04:37:05.005Z,8
2016-03-25T04:38:04.991Z,8
2016-03-25T04:39:04.980Z,12
2016-03-25T04:40:04.982Z,16
2016-03-25T04:41:04.984Z,16
2016-03-25T04:42:04.987Z,20
2016-03-25T04:43:05.005Z,20
2016-03-25T04:44:04.977Z,24
2016-03-25T04:45:04.996Z,24
2016-03-25T04:46:04.998Z,28
2016-03-25T04:47:05.000Z,32
2016-03-25T04:48:04.972Z,36
2016-03-25T04:49:04.974Z,40
2016-03-25T04:50:04.976Z,44
2016-03-25T04:51:04.980Z,52
2016-03-25T04:52:04.982Z,52
2016-03-25T04:53:04.985Z,60
2016-03-25T04:54:04.973Z,68
2016-03-25T04:55:05.022Z,76
2016-03-25T04:56:04.978Z,84
2016-03-25T04:57:05.183Z,104
2016-03-25T04:58:04.984Z,116
2016-03-25T04:59:04.954Z,132
2016-03-25T05:00:04.973Z,148
2016-03-25T05:01:04.242Z,168
2016-03-25T05:02:04.978Z,188
2016-03-25T05:03:04.965Z,204
2016-03-25T05:04:04.967Z,220
2016-03-25T05:05:04.970Z,232
2016-03-25T05:06:04.957Z,248
2016-03-25T05:07:04.975Z,264
2016-03-25T05:08:04.965Z,284
2016-03-25T05:09:04.952Z,308
2016-03-25T05:10:04.251Z,336
2016-03-25T05:11:04.957Z,364
2016-03-25T05:12:04.975Z,380
2016-03-25T05:13:04.946Z,388
2016-03-25T05:14:04.949Z,400
2016-03-25T05:15:04.951Z,412
2016-03-25T05:16:04.939Z,428
2016-03-25T05:17:04.941Z,452
2016-03-25T05:18:04.944Z,488
2016-03-25T05:19:04.775Z,532
2016-03-25T05:20:04.933Z,580
2016-03-25T05:21:04.952Z,604
2016-03-25T05:22:04.939Z,628
2016-03-25T05:23:04.926Z,640
2016-03-25T05:24:04.929Z,644
2016-03-25T05:25:04.932Z,636
2016-03-25T05:26:04.950Z,652
2016-03-25T05:27:04.921Z,668
2016-03-25T05:28:04.940Z,688
2016-03-25T05:29:04.911Z,704
2016-03-25T05:30:04.930Z,728
2016-03-25T05:31:04.916Z,760
2016-03-25T05:32:04.919Z,796
2016-03-25T05:33:04.938Z,824
2016-03-25T05:34:04.909Z,848
2016-03-25T05:35:04.943Z,864
2016-03-25T05:36:04.914Z,860
2016-03-25T05:37:04.918Z,824
2016-03-25T05:38:04.904Z,764
2016-03-25T05:39:04.907Z,704
2016-03-25T05:40:04.910Z,672
2016-03-25T05:41:04.928Z,676
2016-03-25T05:42:04.899Z,708
2016-03-25T05:43:04.918Z,736
2016-03-25T05:44:05.105Z,756
2016-03-25T05:45:04.905Z,792
2016-03-25T05:46:04.908Z,828
2016-03-25T05:47:04.910Z,852
2016-03-25T05:48:04.897Z,884
2016-03-25T05:49:04.915Z,916
2016-03-25T05:50:04.903Z,936
2016-03-25T05:51:04.905Z,944
2016-03-25T05:52:04.907Z,944
2016-03-25T05:53:04.911Z,960
2016-03-25T05:54:04.882Z,984
2016-03-25T05:55:04.884Z,1004
2016-03-25T05:56:04.903Z,1012
2016-03-25T05:57:04.905Z,1004
2016-03-25T05:58:04.898Z,992
2016-03-25T05:59:04.901Z,992
2016-03-25T06:00:04.887Z,1000
2016-03-25T06:01:05.701Z,1032
2016-03-25T06:02:04.877Z,1064
2016-03-25T06:03:04.879Z,1072
2016-03-25T06:04:04.882Z,1080
2016-03-25T06:05:04.885Z,1096
2016-03-25T06:06:05.106Z,1132
2016-03-25T06:07:04.890Z,1172
2016-03-25T06:08:04.878Z,1188
2016-03-25T06:09:04.880Z,1160
2016-03-25T06:10:04.883Z,1084
2016-03-25T06:11:04.870Z,1000
2016-03-25T06:12:04.888Z,956
2016-03-25T06:13:04.876Z,944
2016-03-25T06:14:04.894Z,952
2016-03-25T06:15:04.880Z,952
2016-03-25T06:16:04.884Z,952
2016-03-25T06:17:04.886Z,972
2016-03-25T06:18:04.872Z,1020
2016-03-25T06:19:04.875Z,1092
2016-03-25T06:20:04.878Z,1172
2016-03-25T06:21:04.897Z,1200
2016-03-25T06:22:04.868Z,1192
2016-03-25T06:23:04.902Z,1212
2016-03-25T06:24:04.874Z,1308
2016-03-25T06:25:04.876Z,1404
2016-03-25T06:26:04.863Z,1512
2016-03-25T06:27:04.882Z,1684
2016-03-25T06:28:04.868Z,1916
2016-03-25T06:29:04.856Z,2264
2016-03-25T06:30:04.859Z,2616
2016-03-25T06:31:04.876Z,2804
2016-03-25T06:32:04.879Z,2892
2016-03-25T06:33:04.867Z,3008
2016-03-25T06:34:04.870Z,3144
2016-03-25T06:35:04.857Z,3240
2016-03-25T06:36:04.875Z,3332
2016-03-25T06:37:04.878Z,3384
2016-03-25T06:38:04.865Z,3388
2016-03-25T06:39:04.695Z,3440
2016-03-25T06:40:04.869Z,3540
2016-03-25T06:41:04.873Z,3604
2016-03-25T06:42:04.859Z,3564
2016-03-25T06:43:04.861Z,3432
2016-03-25T06:44:04.865Z,3284
2016-03-25T06:45:04.852Z,3216
2016-03-25T06:46:04.855Z,3248
2016-03-25T06:47:04.858Z,3340
2016-03-25T06:48:04.860Z,3404
2016-03-25T06:49:04.863Z,3460
2016-03-25T06:50:04.850Z,3484
2016-03-25T06:51:04.868Z,3436
2016-03-25T06:52:04.855Z,3380
2016-03-25T06:53:04.858Z,3332
2016-03-25T06:54:04.860Z,3224
2016-03-25T06:55:04.848Z,3100
2016-03-25T06:56:04.850Z,3120
2016-03-25T06:57:04.868Z,3300
2016-03-25T06:58:04.840Z,3612
2016-03-25T06:59:04.843Z,4016
2016-03-25T07:00:04.845Z,4248
2016-03-25T07:01:04.848Z,4304
2016-03-25T07:02:04.851Z,4444
2016-03-25T07:03:04.838Z,4800
2016-03-25T07:04:04.856Z,5368
2016-03-25T07:05:04.843Z,5992
2016-03-25T07:06:04.861Z,6428
2016-03-25T07:07:04.864Z,6592
2016-03-25T07:08:04.867Z,6936
2016-03-25T07:09:04.839Z,7132
2016-03-25T07:10:04.856Z,7004
2016-03-25T07:11:04.845Z,6876
2016-03-25T07:12:04.862Z,6964
2016-03-25T07:13:04.849Z,7076
2016-03-25T07:14:04.852Z,6788
2016-03-25T07:15:04.855Z,6272
2016-03-25T07:16:04.841Z,5928
2016-03-25T07:17:04.860Z,5692
2016-03-25T07:18:04.831Z,5496
2016-03-25T07:19:04.865Z,5384
2016-03-25T07:20:04.853Z,5520
2016-03-25T07:21:04.871Z,5788
2016-03-25T07:22:04.857Z,5968
2016-03-25T07:23:04.845Z,6088
2016-03-25T07:24:04.847Z,6376
2016-03-25T07:25:04.834Z,6844
2016-03-25T07:26:05.040Z,7436
2016-03-25T07:27:04.824Z,8104
2016-03-25T07:28:04.858Z,8520
2016-03-25T07:29:04.846Z,8480
2016-03-25T07:30:04.864Z,8088
2016-03-25T07:31:04.851Z,7624
2016-03-25T07:32:04.838Z,7176
2016-03-25T07:33:04.840Z,6772
2016-03-25T07:34:04.171Z,6284
2016-03-25T07:35:04.845Z,5944
2016-03-25T07:36:04.833Z,5932
2016-03-25T07:37:04.851Z,6128
2016-03-25T07:38:04.838Z,6348
2016-03-25T07:39:04.841Z,6600
2016-03-25T07:40:04.843Z,7012
2016-03-25T07:41:04.845Z,7500
2016-03-25T07:42:04.865Z,7876
2016-03-25T07:43:04.867Z,8188
2016-03-25T07:44:04.870Z,8244
2016-03-25T07:45:05.045Z,8384
2016-03-25T07:46:05.314Z,8672
2016-03-25T07:47:04.862Z,9208
2016-03-25T07:48:05.444Z,9632
2016-03-25T07:49:04.915Z,9748
2016-03-25T07:50:05.152Z,9924
2016-03-25T07:51:04.889Z,10284
2016-03-25T07:52:04.735Z,10660
2016-03-25T07:53:04.894Z,10976
2016-03-25T07:54:05.163Z,11208
2016-03-25T07:55:04.900Z,11420
2016-03-25T07:56:04.933Z,11716
2016-03-25T07:57:04.920Z,11844
2016-03-25T07:58:04.923Z,11508
2016-03-25T07:59:04.911Z,10876
2016-03-25T08:00:04.929Z,10256
2016-03-25T08:01:04.915Z,9788
2016-03-25T08:02:04.966Z,9720
2016-03-25T08:03:04.905Z,10044
2016-03-25T08:04:05.064Z,10608
2016-03-25T08:05:04.895Z,11144
2016-03-25T08:06:05.070Z,11460
2016-03-25T08:07:04.901Z,11732
2016-03-25T08:08:04.887Z,12188
2016-03-25T08:09:04.921Z,12812
2016-03-25T08:10:05.081Z,13456
2016-03-25T08:11:04.880Z,14024
2016-03-25T08:12:04.898Z,14376
2016-03-25T08:13:04.901Z,14576
2016-03-25T08:14:04.872Z,14564
2016-03-25T08:15:04.937Z,14368
2016-03-25T08:16:04.878Z,14372
2016-03-25T08:17:04.912Z,14304
2016-03-25T08:18:04.883Z,14308
2016-03-25T08:19:05.933Z,14376
2016-03-25T08:20:04.936Z,14532
2016-03-25T08:21:04.922Z,14772
2016-03-25T08:22:04.753Z,15160
2016-03-25T08:23:04.975Z,15684
2016-03-25T08:24:05.852Z,16328
2016-03-25T08:25:04.949Z,17120
2016-03-25T08:26:04.936Z,17408
2016-03-25T08:27:05.063Z,17504
2016-03-25T08:28:05.019Z,17440
2016-03-25T08:29:04.944Z,17312
2016-03-25T08:30:05.009Z,17024
2016-03-25T08:31:07.997Z,16608
2016-03-25T08:32:05.140Z,15928
2016-03-25T08:33:04.971Z,15464
2016-03-25T08:34:05.114Z,15288
2016-03-25T08:35:04.960Z,15124
2016-03-25T08:36:04.963Z,14348
2016-03-25T08:37:04.950Z,14444
2016-03-25T08:38:05.140Z,14556
2016-03-25T08:39:04.845Z,14808
2016-03-25T08:40:05.004Z,14628
2016-03-25T08:41:04.976Z,14624
2016-03-25T08:42:04.323Z,15360
2016-03-25T08:43:05.045Z,16096
2016-03-25T08:44:04.828Z,15868
2016-03-25T08:45:05.081Z,17568
2016-03-25T08:46:04.350Z,17664
2016-03-25T08:47:05.477Z,18176
2016-03-25T08:48:05.105Z,18784
2016-03-25T08:49:05.029Z,18048
2016-03-25T08:50:04.376Z,17504
2016-03-25T08:51:05.067Z,18976
2016-03-25T08:52:05.162Z,20736
2016-03-25T08:53:05.072Z,19744
2016-03-25T08:54:05.027Z,16544
2016-03-25T08:55:05.124Z,13460
2016-03-25T08:56:04.455Z,12476
2016-03-25T08:57:05.160Z,12464
2016-03-25T08:58:05.069Z,12780
2016-03-25T08:59:05.134Z,13576
2016-03-25T09:00:05.058Z,14276
2016-03-25T09:01:05.061Z,13732
2016-03-25T09:02:05.283Z,12980
2016-03-25T09:03:05.146Z,13104
2016-03-25T09:04:04.694Z,12508
2016-03-25T09:06:07.887Z,11424
